sensor_id;sensor_type;location;lat;lon;timestamp;P1;durP1;ratioP1;P2;durP2;ratioP2
69894;SDS011;57172;52.034;5.090;2023-03-15T00:01:07;1.87;;;1.20;;
69894;SDS011;57172;52.034;5.090;2023-03-15T00:03:37;2.00;;;1.20;;
69894;SDS011;57172;52.034;5.090;2023-03-15T00:06:05;5.40;;;1.30;;
69894;SDS011;57172;52.034;5.090;2023-03-15T00:08:32;2.20;;;1.20;;
69894;SDS011;57172;52.034;5.090;2023-03-15T00:11:00;2.20;;;1.23;;
69894;SDS011;57172;52.034;5.090;2023-03-15T00:13:27;2.20;;;1.10;;
69894;SDS011;57172;52.034;5.090;2023-03-15T00:15:55;2.20;;;1.30;;
69894;SDS011;57172;52.034;5.090;2023-03-15T00:18:25;2.15;;;1.23;;
69894;SDS011;57172;52.034;5.090;2023-03-15T00:20:52;4.30;;;1.40;;
69894;SDS011;57172;52.034;5.090;2023-03-15T00:23:20;3.63;;;1.40;;
69894;SDS011;57172;52.034;5.090;2023-03-15T00:25:47;4.70;;;1.73;;
69894;SDS011;57172;52.034;5.090;2023-03-15T00:28:15;2.50;;;1.40;;
69894;SDS011;57172;52.034;5.090;2023-03-15T00:30:42;1.83;;;1.20;;
69894;SDS011;57172;52.034;5.090;2023-03-15T00:33:13;5.90;;;1.20;;
69894;SDS011;57172;52.034;5.090;2023-03-15T00:35:41;5.15;;;1.30;;
69894;SDS011;57172;52.034;5.090;2023-03-15T00:38:09;3.20;;;1.30;;
69894;SDS011;57172;52.034;5.090;2023-03-15T00:40:36;3.17;;;1.20;;
69894;SDS011;57172;52.034;5.090;2023-03-15T00:43:03;4.13;;;1.33;;
69894;SDS011;57172;52.034;5.090;2023-03-15T00:45:30;2.35;;;1.10;;
69894;SDS011;57172;52.034;5.090;2023-03-15T00:47:58;3.15;;;1.20;;
69894;SDS011;57172;52.034;5.090;2023-03-15T00:50:25;3.57;;;1.00;;
69894;SDS011;57172;52.034;5.090;2023-03-15T00:52:54;4.13;;;1.27;;
69894;SDS011;57172;52.034;5.090;2023-03-15T00:55:20;2.15;;;1.20;;
69894;SDS011;57172;52.034;5.090;2023-03-15T00:57:47;4.03;;;1.40;;
69894;SDS011;57172;52.034;5.090;2023-03-15T01:00:21;1.75;;;1.13;;
69894;SDS011;57172;52.034;5.090;2023-03-15T01:02:51;2.53;;;1.57;;
69894;SDS011;57172;52.034;5.090;2023-03-15T01:05:19;3.40;;;1.33;;
69894;SDS011;57172;52.034;5.090;2023-03-15T01:07:47;3.33;;;1.27;;
69894;SDS011;57172;52.034;5.090;2023-03-15T01:10:14;4.50;;;1.50;;
69894;SDS011;57172;52.034;5.090;2023-03-15T01:12:41;2.83;;;1.17;;
69894;SDS011;57172;52.034;5.090;2023-03-15T01:15:10;2.10;;;1.17;;
69894;SDS011;57172;52.034;5.090;2023-03-15T01:17:38;4.20;;;1.40;;
69894;SDS011;57172;52.034;5.090;2023-03-15T01:20:06;2.60;;;1.60;;
69894;SDS011;57172;52.034;5.090;2023-03-15T01:22:34;6.20;;;1.40;;
69894;SDS011;57172;52.034;5.090;2023-03-15T01:25:01;5.28;;;1.50;;
69894;SDS011;57172;52.034;5.090;2023-03-15T01:27:28;4.77;;;1.60;;
69894;SDS011;57172;52.034;5.090;2023-03-15T01:29:55;3.85;;;1.50;;
69894;SDS011;57172;52.034;5.090;2023-03-15T01:32:22;3.78;;;1.50;;
69894;SDS011;57172;52.034;5.090;2023-03-15T01:34:49;4.65;;;1.35;;
69894;SDS011;57172;52.034;5.090;2023-03-15T01:37:16;4.30;;;1.38;;
69894;SDS011;57172;52.034;5.090;2023-03-15T01:39:44;6.43;;;1.43;;
69894;SDS011;57172;52.034;5.090;2023-03-15T01:42:10;4.55;;;1.30;;
69894;SDS011;57172;52.034;5.090;2023-03-15T01:44:52;2.97;;;1.50;;
69894;SDS011;57172;52.034;5.090;2023-03-15T01:47:27;3.63;;;1.50;;
69894;SDS011;57172;52.034;5.090;2023-03-15T01:50:02;3.00;;;1.60;;
69894;SDS011;57172;52.034;5.090;2023-03-15T01:52:38;4.03;;;1.47;;
69894;SDS011;57172;52.034;5.090;2023-03-15T01:55:15;7.63;;;1.60;;
69894;SDS011;57172;52.034;5.090;2023-03-15T01:58:01;5.57;;;1.73;;
69894;SDS011;57172;52.034;5.090;2023-03-15T02:00:34;3.55;;;1.60;;
69894;SDS011;57172;52.034;5.090;2023-03-15T02:03:09;5.18;;;1.60;;
69894;SDS011;57172;52.034;5.090;2023-03-15T02:05:45;7.40;;;1.90;;
69894;SDS011;57172;52.034;5.090;2023-03-15T02:08:35;5.05;;;1.50;;
69894;SDS011;57172;52.034;5.090;2023-03-15T02:11:05;4.05;;;1.77;;
69894;SDS011;57172;52.034;5.090;2023-03-15T02:13:32;5.40;;;1.70;;
69894;SDS011;57172;52.034;5.090;2023-03-15T02:16:06;5.45;;;1.70;;
69894;SDS011;57172;52.034;5.090;2023-03-15T02:18:43;4.27;;;1.67;;
69894;SDS011;57172;52.034;5.090;2023-03-15T02:21:17;5.82;;;1.75;;
69894;SDS011;57172;52.034;5.090;2023-03-15T02:24:25;4.97;;;1.88;;
69894;SDS011;57172;52.034;5.090;2023-03-15T02:27:04;3.70;;;1.50;;
69894;SDS011;57172;52.034;5.090;2023-03-15T02:29:32;10.07;;;1.73;;
69894;SDS011;57172;52.034;5.090;2023-03-15T02:31:59;4.33;;;1.70;;
69894;SDS011;57172;52.034;5.090;2023-03-15T02:34:30;4.93;;;1.77;;
69894;SDS011;57172;52.034;5.090;2023-03-15T02:36:57;8.77;;;2.13;;
69894;SDS011;57172;52.034;5.090;2023-03-15T02:39:26;8.95;;;1.90;;
69894;SDS011;57172;52.034;5.090;2023-03-15T02:41:55;3.67;;;1.80;;
69894;SDS011;57172;52.034;5.090;2023-03-15T02:47:05;8.73;;;2.00;;
69894;SDS011;57172;52.034;5.090;2023-03-15T02:49:41;4.03;;;1.75;;
69894;SDS011;57172;52.034;5.090;2023-03-15T02:52:10;6.05;;;2.00;;
69894;SDS011;57172;52.034;5.090;2023-03-15T02:54:39;8.43;;;1.90;;
69894;SDS011;57172;52.034;5.090;2023-03-15T02:57:09;4.67;;;1.80;;
69894;SDS011;57172;52.034;5.090;2023-03-15T02:59:37;5.95;;;1.60;;
69894;SDS011;57172;52.034;5.090;2023-03-15T03:02:04;6.45;;;1.70;;
69894;SDS011;57172;52.034;5.090;2023-03-15T03:04:32;6.38;;;1.70;;
69894;SDS011;57172;52.034;5.090;2023-03-15T03:06:59;7.03;;;1.60;;
69894;SDS011;57172;52.034;5.090;2023-03-15T03:09:33;6.43;;;1.77;;
69894;SDS011;57172;52.034;5.090;2023-03-15T03:12:00;7.82;;;1.98;;
69894;SDS011;57172;52.034;5.090;2023-03-15T03:14:29;4.28;;;1.90;;
69894;SDS011;57172;52.034;5.090;2023-03-15T03:16:57;5.15;;;2.13;;
69894;SDS011;57172;52.034;5.090;2023-03-15T03:19:24;7.82;;;1.80;;
69894;SDS011;57172;52.034;5.090;2023-03-15T03:21:52;4.70;;;1.83;;
69894;SDS011;57172;52.034;5.090;2023-03-15T03:24:20;7.05;;;1.85;;
69894;SDS011;57172;52.034;5.090;2023-03-15T03:26:47;7.90;;;1.83;;
69894;SDS011;57172;52.034;5.090;2023-03-15T03:29:14;3.10;;;1.50;;
69894;SDS011;57172;52.034;5.090;2023-03-15T03:31:43;5.65;;;1.90;;
69894;SDS011;57172;52.034;5.090;2023-03-15T03:34:10;3.80;;;1.70;;
69894;SDS011;57172;52.034;5.090;2023-03-15T03:36:41;4.38;;;1.80;;
69894;SDS011;57172;52.034;5.090;2023-03-15T03:39:10;13.88;;;2.20;;
69894;SDS011;57172;52.034;5.090;2023-03-15T03:41:37;4.82;;;2.00;;
69894;SDS011;57172;52.034;5.090;2023-03-15T03:44:05;6.57;;;1.98;;
69894;SDS011;57172;52.034;5.090;2023-03-15T03:46:32;5.47;;;1.83;;
69894;SDS011;57172;52.034;5.090;2023-03-15T03:49:00;6.32;;;2.10;;
69894;SDS011;57172;52.034;5.090;2023-03-15T03:51:27;6.70;;;1.90;;
69894;SDS011;57172;52.034;5.090;2023-03-15T03:53:54;4.55;;;2.10;;
69894;SDS011;57172;52.034;5.090;2023-03-15T03:56:20;11.23;;;2.30;;
69894;SDS011;57172;52.034;5.090;2023-03-15T03:58:47;5.50;;;1.90;;
69894;SDS011;57172;52.034;5.090;2023-03-15T04:01:19;7.88;;;2.00;;
69894;SDS011;57172;52.034;5.090;2023-03-15T04:03:50;6.97;;;2.45;;
69894;SDS011;57172;52.034;5.090;2023-03-15T04:06:19;5.75;;;2.08;;
69894;SDS011;57172;52.034;5.090;2023-03-15T04:08:47;4.95;;;2.03;;
69894;SDS011;57172;52.034;5.090;2023-03-15T04:11:21;4.10;;;1.70;;
69894;SDS011;57172;52.034;5.090;2023-03-15T04:13:58;5.97;;;2.00;;
69894;SDS011;57172;52.034;5.090;2023-03-15T04:16:25;7.10;;;2.20;;
69894;SDS011;57172;52.034;5.090;2023-03-15T04:19:04;8.05;;;2.10;;
69894;SDS011;57172;52.034;5.090;2023-03-15T04:21:34;6.20;;;2.22;;
69894;SDS011;57172;52.034;5.090;2023-03-15T04:24:22;8.70;;;2.10;;
69894;SDS011;57172;52.034;5.090;2023-03-15T04:27:04;9.82;;;2.00;;
69894;SDS011;57172;52.034;5.090;2023-03-15T04:30:07;13.30;;;2.00;;
69894;SDS011;57172;52.034;5.090;2023-03-15T04:32:49;9.77;;;2.30;;
69894;SDS011;57172;52.034;5.090;2023-03-15T04:35:42;6.10;;;2.10;;
69894;SDS011;57172;52.034;5.090;2023-03-15T04:38:41;5.47;;;2.00;;
69894;SDS011;57172;52.034;5.090;2023-03-15T04:41:22;4.78;;;1.98;;
69894;SDS011;57172;52.034;5.090;2023-03-15T04:44:03;6.80;;;1.77;;
69894;SDS011;57172;52.034;5.090;2023-03-15T04:46:56;7.60;;;1.90;;
69894;SDS011;57172;52.034;5.090;2023-03-15T04:49:31;6.03;;;1.90;;
69894;SDS011;57172;52.034;5.090;2023-03-15T04:52:22;6.83;;;1.80;;
69894;SDS011;57172;52.034;5.090;2023-03-15T04:55:10;4.80;;;1.80;;
69894;SDS011;57172;52.034;5.090;2023-03-15T04:58:00;5.65;;;1.77;;
69894;SDS011;57172;52.034;5.090;2023-03-15T05:00:39;4.60;;;2.00;;
69894;SDS011;57172;52.034;5.090;2023-03-15T05:03:28;7.88;;;2.17;;
69894;SDS011;57172;52.034;5.090;2023-03-15T05:06:27;7.20;;;1.60;;
69894;SDS011;57172;52.034;5.090;2023-03-15T05:09:30;5.47;;;1.80;;
69894;SDS011;57172;52.034;5.090;2023-03-15T05:12:23;9.30;;;2.10;;
69894;SDS011;57172;52.034;5.090;2023-03-15T05:15:09;7.15;;;1.65;;
69894;SDS011;57172;52.034;5.090;2023-03-15T05:17:52;7.20;;;1.80;;
69894;SDS011;57172;52.034;5.090;2023-03-15T05:20:33;7.73;;;1.80;;
69894;SDS011;57172;52.034;5.090;2023-03-15T05:23:19;8.65;;;1.83;;
69894;SDS011;57172;52.034;5.090;2023-03-15T05:26:07;7.70;;;2.00;;
69894;SDS011;57172;52.034;5.090;2023-03-15T05:28:53;9.63;;;1.90;;
69894;SDS011;57172;52.034;5.090;2023-03-15T05:31:26;8.13;;;1.90;;
69894;SDS011;57172;52.034;5.090;2023-03-15T05:34:16;5.73;;;1.80;;
69894;SDS011;57172;52.034;5.090;2023-03-15T05:36:58;6.47;;;1.95;;
69894;SDS011;57172;52.034;5.090;2023-03-15T05:39:28;7.70;;;2.00;;
69894;SDS011;57172;52.034;5.090;2023-03-15T05:42:11;5.40;;;2.00;;
69894;SDS011;57172;52.034;5.090;2023-03-15T05:44:57;7.80;;;1.95;;
69894;SDS011;57172;52.034;5.090;2023-03-15T05:47:37;9.83;;;2.07;;
69894;SDS011;57172;52.034;5.090;2023-03-15T05:50:22;8.13;;;2.00;;
69894;SDS011;57172;52.034;5.090;2023-03-15T05:52:57;7.45;;;2.60;;
69894;SDS011;57172;52.034;5.090;2023-03-15T05:55:41;9.70;;;2.78;;
69894;SDS011;57172;52.034;5.090;2023-03-15T05:58:08;7.70;;;2.30;;
69894;SDS011;57172;52.034;5.090;2023-03-15T06:00:54;10.90;;;2.50;;
69894;SDS011;57172;52.034;5.090;2023-03-15T06:03:40;7.07;;;2.45;;
69894;SDS011;57172;52.034;5.090;2023-03-15T06:06:15;12.07;;;2.42;;
69894;SDS011;57172;52.034;5.090;2023-03-15T06:08:42;10.80;;;2.28;;
69894;SDS011;57172;52.034;5.090;2023-03-15T06:11:09;10.88;;;2.60;;
69894;SDS011;57172;52.034;5.090;2023-03-15T06:13:37;7.63;;;2.00;;
69894;SDS011;57172;52.034;5.090;2023-03-15T06:16:11;8.27;;;2.00;;
69894;SDS011;57172;52.034;5.090;2023-03-15T06:18:42;8.13;;;2.17;;
69894;SDS011;57172;52.034;5.090;2023-03-15T06:21:09;7.20;;;1.90;;
69894;SDS011;57172;52.034;5.090;2023-03-15T06:23:36;5.65;;;1.80;;
69894;SDS011;57172;52.034;5.090;2023-03-15T06:26:03;9.60;;;1.67;;
69894;SDS011;57172;52.034;5.090;2023-03-15T06:28:30;9.75;;;2.05;;
69894;SDS011;57172;52.034;5.090;2023-03-15T06:31:09;6.82;;;1.70;;
69894;SDS011;57172;52.034;5.090;2023-03-15T06:33:46;5.47;;;1.90;;
69894;SDS011;57172;52.034;5.090;2023-03-15T06:36:13;11.90;;;2.03;;
69894;SDS011;57172;52.034;5.090;2023-03-15T06:38:41;4.93;;;1.70;;
69894;SDS011;57172;52.034;5.090;2023-03-15T06:41:08;9.00;;;2.10;;
69894;SDS011;57172;52.034;5.090;2023-03-15T06:43:38;14.23;;;2.40;;
69894;SDS011;57172;52.034;5.090;2023-03-15T06:46:05;9.45;;;2.30;;
69894;SDS011;57172;52.034;5.090;2023-03-15T06:48:32;7.55;;;2.33;;
69894;SDS011;57172;52.034;5.090;2023-03-15T06:50:59;7.60;;;1.90;;
69894;SDS011;57172;52.034;5.090;2023-03-15T06:53:26;7.95;;;2.40;;
69894;SDS011;57172;52.034;5.090;2023-03-15T06:55:53;10.93;;;2.13;;
69894;SDS011;57172;52.034;5.090;2023-03-15T06:58:20;5.90;;;1.95;;
69894;SDS011;57172;52.034;5.090;2023-03-15T07:00:48;7.15;;;1.73;;
69894;SDS011;57172;52.034;5.090;2023-03-15T07:03:15;7.80;;;1.90;;
69894;SDS011;57172;52.034;5.090;2023-03-15T07:05:44;6.10;;;2.00;;
69894;SDS011;57172;52.034;5.090;2023-03-15T07:08:11;9.07;;;2.00;;
69894;SDS011;57172;52.034;5.090;2023-03-15T07:10:38;6.40;;;1.70;;
69894;SDS011;57172;52.034;5.090;2023-03-15T07:13:05;5.85;;;1.67;;
69894;SDS011;57172;52.034;5.090;2023-03-15T07:15:34;4.00;;;1.70;;
69894;SDS011;57172;52.034;5.090;2023-03-15T07:18:02;6.97;;;1.50;;
69894;SDS011;57172;52.034;5.090;2023-03-15T07:20:29;6.50;;;2.00;;
69894;SDS011;57172;52.034;5.090;2023-03-15T07:22:57;6.22;;;1.60;;
69894;SDS011;57172;52.034;5.090;2023-03-15T07:25:29;6.18;;;1.63;;
69894;SDS011;57172;52.034;5.090;2023-03-15T07:28:10;4.43;;;1.40;;
69894;SDS011;57172;52.034;5.090;2023-03-15T07:30:40;8.10;;;1.58;;
69894;SDS011;57172;52.034;5.090;2023-03-15T07:33:07;4.88;;;1.50;;
69894;SDS011;57172;52.034;5.090;2023-03-15T07:35:34;4.72;;;1.63;;
69894;SDS011;57172;52.034;5.090;2023-03-15T07:38:01;6.35;;;1.90;;
69894;SDS011;57172;52.034;5.090;2023-03-15T07:40:28;3.20;;;1.30;;
69894;SDS011;57172;52.034;5.090;2023-03-15T07:42:55;4.35;;;1.35;;
69894;SDS011;57172;52.034;5.090;2023-03-15T07:45:22;3.47;;;1.45;;
69894;SDS011;57172;52.034;5.090;2023-03-15T07:47:49;6.53;;;1.48;;
69894;SDS011;57172;52.034;5.090;2023-03-15T07:50:16;3.58;;;1.40;;
69894;SDS011;57172;52.034;5.090;2023-03-15T07:52:43;3.67;;;1.40;;
69894;SDS011;57172;52.034;5.090;2023-03-15T07:55:10;5.70;;;1.30;;
69894;SDS011;57172;52.034;5.090;2023-03-15T07:57:36;4.55;;;1.52;;
69894;SDS011;57172;52.034;5.090;2023-03-15T08:00:03;3.95;;;1.40;;
69894;SDS011;57172;52.034;5.090;2023-03-15T08:02:37;3.42;;;1.40;;
69894;SDS011;57172;52.034;5.090;2023-03-15T08:05:05;3.97;;;1.43;;
69894;SDS011;57172;52.034;5.090;2023-03-15T08:07:32;4.15;;;1.55;;
69894;SDS011;57172;52.034;5.090;2023-03-15T08:10:00;4.07;;;1.50;;
69894;SDS011;57172;52.034;5.090;2023-03-15T08:12:28;4.60;;;1.42;;
69894;SDS011;57172;52.034;5.090;2023-03-15T08:14:56;4.13;;;1.77;;
69894;SDS011;57172;52.034;5.090;2023-03-15T08:17:23;5.07;;;1.77;;
69894;SDS011;57172;52.034;5.090;2023-03-15T08:19:50;6.00;;;1.80;;
69894;SDS011;57172;52.034;5.090;2023-03-15T08:22:16;4.68;;;1.50;;
69894;SDS011;57172;52.034;5.090;2023-03-15T08:24:43;3.47;;;1.50;;
69894;SDS011;57172;52.034;5.090;2023-03-15T08:27:11;5.22;;;1.75;;
69894;SDS011;57172;52.034;5.090;2023-03-15T08:29:38;4.53;;;2.37;;
69894;SDS011;57172;52.034;5.090;2023-03-15T08:32:05;5.53;;;2.88;;
69894;SDS011;57172;52.034;5.090;2023-03-15T08:34:33;6.78;;;1.70;;
69894;SDS011;57172;52.034;5.090;2023-03-15T08:37:00;6.90;;;1.80;;
69894;SDS011;57172;52.034;5.090;2023-03-15T08:39:27;5.25;;;1.67;;
69894;SDS011;57172;52.034;5.090;2023-03-15T08:41:54;4.40;;;1.80;;
69894;SDS011;57172;52.034;5.090;2023-03-15T08:44:21;5.75;;;1.80;;
69894;SDS011;57172;52.034;5.090;2023-03-15T08:46:48;5.32;;;1.80;;
69894;SDS011;57172;52.034;5.090;2023-03-15T08:49:15;4.60;;;1.70;;
69894;SDS011;57172;52.034;5.090;2023-03-15T08:51:41;4.72;;;1.63;;
69894;SDS011;57172;52.034;5.090;2023-03-15T08:54:08;7.00;;;1.60;;
69894;SDS011;57172;52.034;5.090;2023-03-15T08:56:35;6.80;;;2.20;;
69894;SDS011;57172;52.034;5.090;2023-03-15T08:59:02;5.63;;;1.90;;
69894;SDS011;57172;52.034;5.090;2023-03-15T09:01:29;5.75;;;2.00;;
69894;SDS011;57172;52.034;5.090;2023-03-15T09:03:56;6.13;;;2.10;;
69894;SDS011;57172;52.034;5.090;2023-03-15T09:06:23;7.27;;;2.20;;
69894;SDS011;57172;52.034;5.090;2023-03-15T09:08:50;6.90;;;2.15;;
69894;SDS011;57172;52.034;5.090;2023-03-15T09:11:19;6.43;;;2.13;;
69894;SDS011;57172;52.034;5.090;2023-03-15T09:13:47;7.90;;;1.90;;
69894;SDS011;57172;52.034;5.090;2023-03-15T09:16:14;6.25;;;2.20;;
69894;SDS011;57172;52.034;5.090;2023-03-15T09:18:40;4.90;;;1.90;;
69894;SDS011;57172;52.034;5.090;2023-03-15T09:21:09;6.75;;;1.88;;
69894;SDS011;57172;52.034;5.090;2023-03-15T09:23:37;4.82;;;2.00;;
69894;SDS011;57172;52.034;5.090;2023-03-15T09:26:06;7.03;;;1.90;;
69894;SDS011;57172;52.034;5.090;2023-03-15T09:28:33;3.90;;;1.70;;
69894;SDS011;57172;52.034;5.090;2023-03-15T09:31:02;6.57;;;2.03;;
69894;SDS011;57172;52.034;5.090;2023-03-15T09:33:31;7.35;;;2.10;;
69894;SDS011;57172;52.034;5.090;2023-03-15T09:35:58;4.60;;;1.80;;
69894;SDS011;57172;52.034;5.090;2023-03-15T09:38:25;4.55;;;1.92;;
69894;SDS011;57172;52.034;5.090;2023-03-15T09:40:58;5.35;;;1.80;;
69894;SDS011;57172;52.034;5.090;2023-03-15T09:46:23;6.47;;;1.90;;
69894;SDS011;57172;52.034;5.090;2023-03-15T09:51:35;5.40;;;1.70;;
69894;SDS011;57172;52.034;5.090;2023-03-15T09:54:10;5.95;;;1.85;;
69894;SDS011;57172;52.034;5.090;2023-03-15T09:56:56;3.60;;;1.60;;
69894;SDS011;57172;52.034;5.090;2023-03-15T09:59:31;6.22;;;1.60;;
69894;SDS011;57172;52.034;5.090;2023-03-15T10:02:01;4.43;;;1.55;;
69894;SDS011;57172;52.034;5.090;2023-03-15T10:04:40;5.55;;;1.70;;
69894;SDS011;57172;52.034;5.090;2023-03-15T10:07:11;5.88;;;1.75;;
69894;SDS011;57172;52.034;5.090;2023-03-15T10:09:40;4.47;;;1.60;;
69894;SDS011;57172;52.034;5.090;2023-03-15T10:12:09;4.57;;;1.55;;
69894;SDS011;57172;52.034;5.090;2023-03-15T10:14:55;4.13;;;1.70;;
69894;SDS011;57172;52.034;5.090;2023-03-15T10:20:06;5.18;;;1.80;;
69894;SDS011;57172;52.034;5.090;2023-03-15T10:25:21;5.43;;;1.50;;
69894;SDS011;57172;52.034;5.090;2023-03-15T10:30:45;7.25;;;1.80;;
69894;SDS011;57172;52.034;5.090;2023-03-15T10:33:32;4.38;;;1.67;;
69894;SDS011;57172;52.034;5.090;2023-03-15T10:36:02;5.23;;;1.97;;
69894;SDS011;57172;52.034;5.090;2023-03-15T10:38:43;4.45;;;1.70;;
69894;SDS011;57172;52.034;5.090;2023-03-15T10:41:26;6.15;;;1.80;;
69894;SDS011;57172;52.034;5.090;2023-03-15T10:44:11;4.63;;;1.90;;
69894;SDS011;57172;52.034;5.090;2023-03-15T10:47:05;4.80;;;1.80;;
69894;SDS011;57172;52.034;5.090;2023-03-15T10:49:49;5.27;;;1.80;;
69894;SDS011;57172;52.034;5.090;2023-03-15T10:54:50;9.00;;;2.00;;
69894;SDS011;57172;52.034;5.090;2023-03-15T10:57:32;5.20;;;1.92;;
69894;SDS011;57172;52.034;5.090;2023-03-15T11:00:26;6.45;;;1.63;;
69894;SDS011;57172;52.034;5.090;2023-03-15T11:03:23;7.47;;;1.80;;
69894;SDS011;57172;52.034;5.090;2023-03-15T11:05:51;4.78;;;1.83;;
69894;SDS011;57172;52.034;5.090;2023-03-15T11:08:24;5.43;;;1.90;;
69894;SDS011;57172;52.034;5.090;2023-03-15T11:11:01;5.43;;;1.80;;
69894;SDS011;57172;52.034;5.090;2023-03-15T11:13:29;6.82;;;1.95;;
69894;SDS011;57172;52.034;5.090;2023-03-15T11:16:03;4.70;;;1.90;;
69894;SDS011;57172;52.034;5.090;2023-03-15T11:21:07;5.93;;;2.00;;
69894;SDS011;57172;52.034;5.090;2023-03-15T11:23:40;5.13;;;1.73;;
69894;SDS011;57172;52.034;5.090;2023-03-15T11:26:14;5.88;;;1.70;;
69894;SDS011;57172;52.034;5.090;2023-03-15T11:28:59;6.33;;;1.80;;
69894;SDS011;57172;52.034;5.090;2023-03-15T11:31:31;6.55;;;1.65;;
69894;SDS011;57172;52.034;5.090;2023-03-15T11:34:05;5.80;;;1.77;;
69894;SDS011;57172;52.034;5.090;2023-03-15T11:36:41;5.13;;;1.58;;
69894;SDS011;57172;52.034;5.090;2023-03-15T11:39:13;4.55;;;1.45;;
69894;SDS011;57172;52.034;5.090;2023-03-15T11:41:46;4.47;;;1.40;;
69894;SDS011;57172;52.034;5.090;2023-03-15T11:47:27;5.45;;;1.60;;
69894;SDS011;57172;52.034;5.090;2023-03-15T11:50:02;4.55;;;1.50;;
69894;SDS011;57172;52.034;5.090;2023-03-15T11:52:29;4.10;;;1.65;;
69894;SDS011;57172;52.034;5.090;2023-03-15T11:54:58;5.73;;;1.70;;
69894;SDS011;57172;52.034;5.090;2023-03-15T12:02:56;4.05;;;1.60;;
69894;SDS011;57172;52.034;5.090;2023-03-15T12:11:10;6.05;;;1.70;;
69894;SDS011;57172;52.034;5.090;2023-03-15T12:13:38;4.40;;;1.90;;
69894;SDS011;57172;52.034;5.090;2023-03-15T12:16:21;6.43;;;1.70;;
69894;SDS011;57172;52.034;5.090;2023-03-15T12:18:52;4.40;;;1.60;;
69894;SDS011;57172;52.034;5.090;2023-03-15T12:21:30;5.37;;;1.50;;
69894;SDS011;57172;52.034;5.090;2023-03-15T12:24:03;5.00;;;1.60;;
69894;SDS011;57172;52.034;5.090;2023-03-15T12:29:11;6.55;;;1.60;;
69894;SDS011;57172;52.034;5.090;2023-03-15T12:32:18;4.85;;;1.58;;
69894;SDS011;57172;52.034;5.090;2023-03-15T12:55:57;4.68;;;1.60;;
69894;SDS011;57172;52.034;5.090;2023-03-15T12:58:48;4.50;;;1.60;;
69894;SDS011;57172;52.034;5.090;2023-03-15T13:01:19;5.60;;;1.63;;
69894;SDS011;57172;52.034;5.090;2023-03-15T13:03:54;3.53;;;1.50;;
69894;SDS011;57172;52.034;5.090;2023-03-15T13:09:06;5.45;;;1.55;;
69894;SDS011;57172;52.034;5.090;2023-03-15T13:11:43;5.70;;;1.75;;
69894;SDS011;57172;52.034;5.090;2023-03-15T13:17:32;3.50;;;1.63;;
69894;SDS011;57172;52.034;5.090;2023-03-15T13:23:09;5.13;;;1.45;;
69894;SDS011;57172;52.034;5.090;2023-03-15T13:28:23;4.43;;;1.50;;
69894;SDS011;57172;52.034;5.090;2023-03-15T13:30:53;4.75;;;1.60;;
69894;SDS011;57172;52.034;5.090;2023-03-15T13:33:25;5.50;;;1.80;;
69894;SDS011;57172;52.034;5.090;2023-03-15T13:38:30;3.60;;;1.50;;
69894;SDS011;57172;52.034;5.090;2023-03-15T13:40:58;4.73;;;1.80;;
69894;SDS011;57172;52.034;5.090;2023-03-15T13:43:31;4.38;;;1.70;;
69894;SDS011;57172;52.034;5.090;2023-03-15T13:46:02;3.20;;;1.73;;
69894;SDS011;57172;52.034;5.090;2023-03-15T13:48:31;5.20;;;1.40;;
69894;SDS011;57172;52.034;5.090;2023-03-15T13:51:43;5.97;;;1.80;;
69894;SDS011;57172;52.034;5.090;2023-03-15T13:56:36;3.92;;;1.65;;
69894;SDS011;57172;52.034;5.090;2023-03-15T13:59:25;3.38;;;1.52;;
69894;SDS011;57172;52.034;5.090;2023-03-15T14:01:57;5.25;;;1.88;;
69894;SDS011;57172;52.034;5.090;2023-03-15T14:04:28;3.80;;;1.63;;
69894;SDS011;57172;52.034;5.090;2023-03-15T14:07:07;5.73;;;1.73;;
69894;SDS011;57172;52.034;5.090;2023-03-15T14:12:44;4.60;;;1.70;;
69894;SDS011;57172;52.034;5.090;2023-03-15T14:15:16;5.32;;;1.80;;
69894;SDS011;57172;52.034;5.090;2023-03-15T14:17:53;5.63;;;2.10;;
69894;SDS011;57172;52.034;5.090;2023-03-15T14:20:30;3.87;;;1.50;;
69894;SDS011;57172;52.034;5.090;2023-03-15T14:23:11;2.83;;;1.40;;
69894;SDS011;57172;52.034;5.090;2023-03-15T14:25:41;3.67;;;1.75;;
69894;SDS011;57172;52.034;5.090;2023-03-15T14:28:11;4.88;;;1.60;;
69894;SDS011;57172;52.034;5.090;2023-03-15T14:30:41;3.03;;;1.70;;
69894;SDS011;57172;52.034;5.090;2023-03-15T14:36:06;4.28;;;1.67;;
69894;SDS011;57172;52.034;5.090;2023-03-15T14:38:55;4.60;;;1.73;;
69894;SDS011;57172;52.034;5.090;2023-03-15T14:41:28;4.82;;;1.70;;
69894;SDS011;57172;52.034;5.090;2023-03-15T14:44:00;3.65;;;1.60;;
69894;SDS011;57172;52.034;5.090;2023-03-15T14:46:31;3.67;;;1.50;;
69894;SDS011;57172;52.034;5.090;2023-03-15T14:48:58;5.25;;;1.50;;
69894;SDS011;57172;52.034;5.090;2023-03-15T14:51:26;5.28;;;1.60;;
69894;SDS011;57172;52.034;5.090;2023-03-15T14:53:54;4.13;;;1.45;;
69894;SDS011;57172;52.034;5.090;2023-03-15T14:56:24;3.33;;;1.80;;
69894;SDS011;57172;52.034;5.090;2023-03-15T14:58:51;4.77;;;1.67;;
69894;SDS011;57172;52.034;5.090;2023-03-15T15:01:24;4.85;;;1.60;;
69894;SDS011;57172;52.034;5.090;2023-03-15T15:03:57;4.82;;;1.50;;
69894;SDS011;57172;52.034;5.090;2023-03-15T15:06:28;4.40;;;1.67;;
69894;SDS011;57172;52.034;5.090;2023-03-15T15:09:02;3.88;;;1.60;;
69894;SDS011;57172;52.034;5.090;2023-03-15T15:11:31;4.07;;;1.67;;
69894;SDS011;57172;52.034;5.090;2023-03-15T15:13:58;3.28;;;1.52;;
69894;SDS011;57172;52.034;5.090;2023-03-15T15:16:25;3.75;;;1.60;;
69894;SDS011;57172;52.034;5.090;2023-03-15T15:18:52;4.05;;;1.63;;
69894;SDS011;57172;52.034;5.090;2023-03-15T15:21:26;3.05;;;1.40;;
69894;SDS011;57172;52.034;5.090;2023-03-15T15:24:00;3.87;;;1.50;;
69894;SDS011;57172;52.034;5.090;2023-03-15T15:26:32;4.15;;;1.50;;
69894;SDS011;57172;52.034;5.090;2023-03-15T15:28:59;3.05;;;1.77;;
69894;SDS011;57172;52.034;5.090;2023-03-15T15:31:26;3.50;;;1.65;;
69894;SDS011;57172;52.034;5.090;2023-03-15T15:33:55;2.45;;;1.50;;
69894;SDS011;57172;52.034;5.090;2023-03-15T15:38:51;3.67;;;1.60;;
69894;SDS011;57172;52.034;5.090;2023-03-15T15:41:20;2.75;;;1.50;;
69894;SDS011;57172;52.034;5.090;2023-03-15T15:43:51;4.82;;;1.77;;
69894;SDS011;57172;52.034;5.090;2023-03-15T15:46:19;4.05;;;1.60;;
69894;SDS011;57172;52.034;5.090;2023-03-15T15:48:46;3.87;;;1.60;;
69894;SDS011;57172;52.034;5.090;2023-03-15T15:51:15;3.95;;;1.80;;
69894;SDS011;57172;52.034;5.090;2023-03-15T15:53:57;3.17;;;1.60;;
69894;SDS011;57172;52.034;5.090;2023-03-15T15:56:28;3.13;;;1.60;;
69894;SDS011;57172;52.034;5.090;2023-03-15T15:58:56;3.25;;;1.70;;
69894;SDS011;57172;52.034;5.090;2023-03-15T16:01:23;3.40;;;1.50;;
69894;SDS011;57172;52.034;5.090;2023-03-15T16:03:53;3.75;;;1.70;;
69894;SDS011;57172;52.034;5.090;2023-03-15T16:06:20;7.43;;;1.70;;
69894;SDS011;57172;52.034;5.090;2023-03-15T16:08:48;4.85;;;1.63;;
69894;SDS011;57172;52.034;5.090;2023-03-15T16:11:17;5.75;;;1.50;;
69894;SDS011;57172;52.034;5.090;2023-03-15T16:13:45;3.77;;;1.80;;
69894;SDS011;57172;52.034;5.090;2023-03-15T16:16:15;2.53;;;1.50;;
69894;SDS011;57172;52.034;5.090;2023-03-15T16:18:43;2.85;;;1.60;;
69894;SDS011;57172;52.034;5.090;2023-03-15T16:21:12;3.95;;;1.27;;
69894;SDS011;57172;52.034;5.090;2023-03-15T16:24:41;3.22;;;1.65;;
69894;SDS011;57172;52.034;5.090;2023-03-15T16:26:52;6.87;;;1.40;;
69894;SDS011;57172;52.034;5.090;2023-03-15T16:29:26;4.72;;;1.45;;
69894;SDS011;57172;52.034;5.090;2023-03-15T16:32:00;5.43;;;2.00;;
69894;SDS011;57172;52.034;5.090;2023-03-15T16:34:44;3.03;;;1.50;;
69894;SDS011;57172;52.034;5.090;2023-03-15T16:37:13;2.95;;;1.50;;
69894;SDS011;57172;52.034;5.090;2023-03-15T16:39:47;3.57;;;1.70;;
69894;SDS011;57172;52.034;5.090;2023-03-15T16:42:16;2.95;;;1.50;;
69894;SDS011;57172;52.034;5.090;2023-03-15T16:44:44;5.47;;;1.90;;